sensor_id;sensor_type;location;lat;lon;timestamp;pressure;altitude;pressure_sealevel;temperature;humidity
85376;BME280;75780;43.986;22.860;2024-01-15T19:18:52;99935.53;;;1.05;84.44
85376;BME280;75780;43.986;22.860;2024-01-15T19:21:18;99932.03;;;0.95;84.01
85376;BME280;75780;43.986;22.860;2024-01-15T19:23:43;99910.66;;;0.81;84.37
85376;BME280;75780;43.986;22.860;2024-01-15T19:26:19;99959.34;;;1.07;84.84
85376;BME280;75780;43.986;22.860;2024-01-15T19:28:44;99912.28;;;0.72;84.43
85376;BME280;75780;43.986;22.860;2024-01-15T19:31:10;99910.75;;;0.89;84.29
85376;BME280;75780;43.986;22.860;2024-01-15T19:33:35;99956.06;;;1.20;83.60
85376;BME280;75780;43.986;22.860;2024-01-15T19:36:01;99955.22;;;1.22;84.31
85376;BME280;75780;43.986;22.860;2024-01-15T19:38:27;99917.63;;;1.00;84.09
85376;BME280;75780;43.986;22.860;2024-01-15T19:40:53;99886.13;;;0.95;83.23
85376;BME280;75780;43.986;22.860;2024-01-15T19:43:18;99929.69;;;1.22;83.17
85376;BME280;75780;43.986;22.860;2024-01-15T19:45:44;99920.38;;;1.24;84.02
85376;BME280;75780;43.986;22.860;2024-01-15T19:48:09;99916.91;;;1.16;84.36
85376;BME280;75780;43.986;22.860;2024-01-15T19:50:36;99895.59;;;1.11;84.45
85376;BME280;75780;43.986;22.860;2024-01-15T19:53:01;99840.09;;;0.80;84.22
85376;BME280;75780;43.986;22.860;2024-01-15T19:55:27;99814.59;;;0.80;83.18
85376;BME280;75780;43.986;22.860;2024-01-15T19:57:52;99891.47;;;1.27;83.55
85376;BME280;75780;43.986;22.860;2024-01-15T20:00:18;99900.84;;;1.32;83.24
85376;BME280;75780;43.986;22.860;2024-01-15T20:02:43;99901.66;;;1.25;84.02
85376;BME280;75780;43.986;22.860;2024-01-15T20:05:09;99882.91;;;1.20;83.09
85376;BME280;75780;43.986;22.860;2024-01-15T20:07:36;99908.44;;;1.22;83.53
85376;BME280;75780;43.986;22.860;2024-01-15T20:10:03;99888.81;;;1.13;83.75
85376;BME280;75780;43.986;22.860;2024-01-15T20:12:29;99880.94;;;0.83;84.28
85376;BME280;75780;43.986;22.860;2024-01-15T20:14:54;99838.44;;;0.84;83.88
85376;BME280;75780;43.986;22.860;2024-01-15T20:17:20;99922.63;;;0.88;84.63
85376;BME280;75780;43.986;22.860;2024-01-15T20:19:45;99860.56;;;0.89;84.59
85376;BME280;75780;43.986;22.860;2024-01-15T20:22:11;99922.47;;;0.75;85.79
85376;BME280;75780;43.986;22.860;2024-01-15T20:24:37;99832.06;;;0.36;86.48
85376;BME280;75780;43.986;22.860;2024-01-15T20:27:03;99896.88;;;0.61;86.08
85376;BME280;75780;43.986;22.860;2024-01-15T20:29:29;99895.19;;;0.61;86.60
85376;BME280;75780;43.986;22.860;2024-01-15T20:31:54;99878.09;;;0.50;86.32
85376;BME280;75780;43.986;22.860;2024-01-15T20:34:20;99849.88;;;0.33;86.39
85376;BME280;75780;43.986;22.860;2024-01-15T20:36:45;99833.78;;;0.39;86.36
85376;BME280;75780;43.986;22.860;2024-01-15T20:39:11;99896.03;;;0.62;86.42
85376;BME280;75780;43.986;22.860;2024-01-15T20:41:37;99837.13;;;0.32;86.33
85376;BME280;75780;43.986;22.860;2024-01-15T20:44:04;99864.47;;;0.51;85.52
85376;BME280;75780;43.986;22.860;2024-01-15T20:46:29;99895.34;;;0.78;85.45
85376;BME280;75780;43.986;22.860;2024-01-15T20:48:55;99868.97;;;0.78;85.32
85376;BME280;75780;43.986;22.860;2024-01-15T20:51:20;99803.19;;;0.36;86.35
85376;BME280;75780;43.986;22.860;2024-01-15T20:53:46;99909.13;;;0.98;85.43
85376;BME280;75780;43.986;22.860;2024-01-15T20:56:13;99899.72;;;0.93;86.17
85376;BME280;75780;43.986;22.860;2024-01-15T20:58:39;99847.34;;;0.35;86.98
85376;BME280;75780;43.986;22.860;2024-01-15T21:01:04;99862.91;;;0.65;86.29
85376;BME280;75780;43.986;22.860;2024-01-15T21:03:30;99872.38;;;0.77;85.71
85376;BME280;75780;43.986;22.860;2024-01-15T21:05:56;99841.34;;;0.30;87.14
85376;BME280;75780;43.986;22.860;2024-01-15T21:08:22;99892.56;;;0.54;85.98
85376;BME280;75780;43.986;22.860;2024-01-15T21:10:47;99887.53;;;0.60;85.91
85376;BME280;75780;43.986;22.860;2024-01-15T21:13:13;99890.13;;;0.67;85.54
85376;BME280;75780;43.986;22.860;2024-01-15T21:15:39;99894.41;;;0.68;85.59
85376;BME280;75780;43.986;22.860;2024-01-15T21:18:05;99890.03;;;0.57;86.61
85376;BME280;75780;43.986;22.860;2024-01-15T21:20:32;99840.41;;;0.22;86.30
85376;BME280;75780;43.986;22.860;2024-01-15T21:22:58;99879.00;;;0.58;86.62
85376;BME280;75780;43.986;22.860;2024-01-15T21:25:25;99873.81;;;0.49;86.52
85376;BME280;75780;43.986;22.860;2024-01-15T21:27:50;99824.25;;;0.18;86.65
85376;BME280;75780;43.986;22.860;2024-01-15T21:30:18;99876.50;;;0.64;85.80
85376;BME280;75780;43.986;22.860;2024-01-15T21:32:43;99885.03;;;0.66;85.79
85376;BME280;75780;43.986;22.860;2024-01-15T21:35:10;99846.53;;;0.36;85.68
85376;BME280;75780;43.986;22.860;2024-01-15T21:37:39;99819.97;;;0.16;86.80
85376;BME280;75780;43.986;22.860;2024-01-15T21:40:05;99879.81;;;0.52;85.46
85376;BME280;75780;43.986;22.860;2024-01-15T21:42:36;99833.91;;;0.51;85.46
85376;BME280;75780;43.986;22.860;2024-01-15T21:45:01;99873.19;;;0.71;85.21
85376;BME280;75780;43.986;22.860;2024-01-15T21:47:27;99820.31;;;0.52;85.52
85376;BME280;75780;43.986;22.860;2024-01-15T21:49:53;99875.69;;;0.68;86.29
85376;BME280;75780;43.986;22.860;2024-01-15T21:52:19;99827.78;;;0.32;85.64
85376;BME280;75780;43.986;22.860;2024-01-15T21:54:44;99859.38;;;0.49;85.79
85376;BME280;75780;43.986;22.860;2024-01-15T21:57:10;99884.22;;;0.73;85.40
85376;BME280;75780;43.986;22.860;2024-01-15T21:59:35;99838.00;;;0.35;86.59
85376;BME280;75780;43.986;22.860;2024-01-15T22:02:01;99890.94;;;0.62;86.81
85376;BME280;75780;43.986;22.860;2024-01-15T22:04:29;99890.94;;;0.63;86.05
85376;BME280;75780;43.986;22.860;2024-01-15T22:06:55;99904.63;;;0.75;86.11
85376;BME280;75780;43.986;22.860;2024-01-15T22:09:20;99885.13;;;0.78;85.44
85376;BME280;75780;43.986;22.860;2024-01-15T22:11:46;99890.22;;;0.80;85.14
85376;BME280;75780;43.986;22.860;2024-01-15T22:14:11;99845.03;;;0.57;85.13
85376;BME280;75780;43.986;22.860;2024-01-15T22:16:37;99852.59;;;0.53;85.82
85376;BME280;75780;43.986;22.860;2024-01-15T22:19:02;99854.31;;;0.54;85.87
85376;BME280;75780;43.986;22.860;2024-01-15T22:21:28;99839.94;;;0.59;85.98
85376;BME280;75780;43.986;22.860;2024-01-15T22:23:53;99833.13;;;0.61;85.68
85376;BME280;75780;43.986;22.860;2024-01-15T22:26:18;99840.84;;;0.70;85.13
85376;BME280;75780;43.986;22.860;2024-01-15T22:28:44;99846.06;;;0.82;85.21
85376;BME280;75780;43.986;22.860;2024-01-15T22:31:10;99887.72;;;0.84;85.50
85376;BME280;75780;43.986;22.860;2024-01-15T22:33:35;99836.63;;;0.71;86.09
85376;BME280;75780;43.986;22.860;2024-01-15T22:36:00;99852.88;;;0.83;86.26
85376;BME280;75780;43.986;22.860;2024-01-15T22:38:26;99821.31;;;0.69;85.76
85376;BME280;75780;43.986;22.860;2024-01-15T22:40:51;99809.41;;;0.68;85.46
85376;BME280;75780;43.986;22.860;2024-01-15T22:43:17;99876.78;;;0.97;85.96
85376;BME280;75780;43.986;22.860;2024-01-15T22:45:42;99824.63;;;0.59;86.59
85376;BME280;75780;43.986;22.860;2024-01-15T22:48:08;99815.25;;;0.55;87.19
85376;BME280;75780;43.986;22.860;2024-01-15T22:50:33;99778.47;;;0.26;86.66
85376;BME280;75780;43.986;22.860;2024-01-15T22:52:58;99828.13;;;0.72;86.04
85376;BME280;75780;43.986;22.860;2024-01-15T22:55:24;99824.69;;;0.68;86.32
85376;BME280;75780;43.986;22.860;2024-01-15T22:57:49;99874.97;;;0.81;86.66
85376;BME280;75780;43.986;22.860;2024-01-15T23:00:15;99879.22;;;0.81;86.71
85376;BME280;75780;43.986;22.860;2024-01-15T23:02:46;99886.09;;;0.94;86.87
85376;BME280;75780;43.986;22.860;2024-01-15T23:05:12;99841.63;;;0.58;86.56
85376;BME280;75780;43.986;22.860;2024-01-15T23:07:37;99882.63;;;0.84;86.98
85376;BME280;75780;43.986;22.860;2024-01-15T23:10:05;99825.34;;;0.43;87.67
85376;BME280;75780;43.986;22.860;2024-01-15T23:12:31;99885.16;;;0.84;87.00
85376;BME280;75780;43.986;22.860;2024-01-15T23:14:56;99884.38;;;0.90;86.76
85376;BME280;75780;43.986;22.860;2024-01-15T23:17:22;99851.84;;;0.60;86.71
85376;BME280;75780;43.986;22.860;2024-01-15T23:19:48;99919.28;;;0.95;87.69
85376;BME280;75780;43.986;22.860;2024-01-15T23:22:13;99908.16;;;0.86;87.79
85376;BME280;75780;43.986;22.860;2024-01-15T23:24:39;99824.28;;;0.24;87.80
85376;BME280;75780;43.986;22.860;2024-01-15T23:27:05;99938.72;;;0.84;88.28
85376;BME280;75780;43.986;22.860;2024-01-15T23:29:30;99932.75;;;0.79;87.73
85376;BME280;75780;43.986;22.860;2024-01-15T23:31:56;99929.41;;;0.89;87.96
85376;BME280;75780;43.986;22.860;2024-01-15T23:34:21;99918.34;;;0.87;87.52
85376;BME280;75780;43.986;22.860;2024-01-15T23:36:47;99946.59;;;1.07;87.89
85376;BME280;75780;43.986;22.860;2024-01-15T23:39:12;99861.09;;;0.52;87.39
85376;BME280;75780;43.986;22.860;2024-01-15T23:41:38;99878.13;;;0.56;87.13
85376;BME280;75780;43.986;22.860;2024-01-15T23:44:04;99942.16;;;0.88;87.47
85376;BME280;75780;43.986;22.860;2024-01-15T23:46:31;99982.38;;;1.14;87.67
85376;BME280;75780;43.986;22.860;2024-01-15T23:48:56;99985.00;;;1.22;86.93
85376;BME280;75780;43.986;22.860;2024-01-15T23:51:22;99975.56;;;1.10;87.26
85376;BME280;75780;43.986;22.860;2024-01-15T23:53:48;99983.31;;;1.24;86.37
85376;BME280;75780;43.986;22.860;2024-01-15T23:56:13;100010.63;;;1.34;87.28
85376;BME280;75780;43.986;22.860;2024-01-15T23:58:39;100015.63;;;1.23;86.95
